Time,TemperatureF,DewpointF,PressureIn,WindDirection,WindDirectionDegrees,WindSpeedMPH,WindSpeedGustMPH,Humidity,HourlyPrecipIn,Conditions,Clouds,dailyrainin,SoftwareType,DateUTC
2013-05-12 00:02:00,61.7,59.1,29.67,West,273,0.0,0.0,91,0.00,,,0.00,WUHU21623XXSP,2013-05-12 04:02:00,
2013-05-12 00:04:00,61.9,59.3,29.67,NW,318,0.0,0.0,91,0.00,,,0.00,WUHU21623XXSP,2013-05-12 04:04:00,
2013-05-12 00:08:00,61.9,59.3,29.67,SSW,206,2.0,2.0,91,0.00,,,0.00,WUHU21623XXSP,2013-05-12 04:08:00,
2013-05-12 00:15:00,61.9,59.3,29.67,SSW,206,2.2,3.6,91,0.00,,,0.00,WUHU21623XXSP,2013-05-12 04:15:00,
2013-05-12 00:17:00,61.9,59.3,29.67,SSW,206,1.8,3.6,91,0.00,,,0.00,WUHU21623XXSP,2013-05-12 04:17:00,
2013-05-12 00:23:00,61.9,59.3,29.68,SSE,161,1.9,2.5,91,0.00,,,0.00,WUHU21623XXSP,2013-05-12 04:23:00,
2013-05-12 00:30:00,61.7,59.1,29.67,South,183,0.0,2.5,91,0.00,,,0.00,WUHU21623XXSP,2013-05-12 04:30:00,
2013-05-12 00:37:00,61.7,59.1,29.68,SW,228,1.6,2.0,91,0.00,,,0.00,WUHU21623XXSP,2013-05-12 04:37:00,
2013-05-12 00:43:00,61.7,59.1,29.67,SSE,161,0.7,1.6,91,0.00,,,0.00,WUHU21623XXSP,2013-05-12 04:43:00,
2013-05-12 00:49:00,61.7,59.1,29.66,South,183,1.3,1.3,91,0.00,,,0.00,WUHU21623XXSP,2013-05-12 04:49:00,
2013-05-12 00:56:00,61.7,59.1,29.67,WSW,251,0.0,1.3,91,0.00,,,0.00,WUHU21623XXSP,2013-05-12 04:56:00,
2013-05-12 01:02:00,61.9,59.1,29.66,WSW,251,0.0,0.7,91,0.00,,,0.00,WUHU21623XXSP,2013-05-12 05:02:00,
2013-05-12 01:09:00,61.9,59.3,29.66,SSW,206,0.0,0.0,91,0.00,,,0.00,WUHU21623XXSP,2013-05-12 05:09:00,
2013-05-12 01:15:00,61.9,59.3,29.66,NW,318,0.9,0.9,91,0.00,,,0.00,WUHU21623XXSP,2013-05-12 05:15:00,
2013-05-12 01:22:00,61.9,59.3,29.65,WNW,296,0.9,0.9,91,0.00,,,0.00,WUHU21623XXSP,2013-05-12 05:22:00,
2013-05-12 01:28:00,61.9,59.3,29.65,East,93,0.0,0.9,91,0.00,,,0.00,WUHU21623XXSP,2013-05-12 05:28:00,
2013-05-12 01:35:00,62.1,59.5,29.66,NE,48,0.9,0.9,91,0.00,,,0.00,WUHU21623XXSP,2013-05-12 05:35:00,
2013-05-12 01:41:00,62.1,59.5,29.66,WSW,251,0.0,0.9,91,0.00,,,0.00,WUHU21623XXSP,2013-05-12 05:41:00,
2013-05-12 01:47:00,62.1,59.5,29.66,West,273,0.7,0.9,91,0.00,,,0.00,WUHU21623XXSP,2013-05-12 05:47:00,
2013-05-12 01:54:00,62.1,59.5,29.64,NW,318,2.5,2.5,91,0.00,,,0.00,WUHU21623XXSP,2013-05-12 05:54:00,
2013-05-12 02:00:00,62.1,59.5,29.64,West,273,0.0,2.5,91,0.00,,,0.00,WUHU21623XXSP,2013-05-12 06:00:00,
2013-05-12 02:07:00,62.1,59.5,29.64,West,273,0.7,0.7,91,0.00,,,0.00,WUHU21623XXSP,2013-05-12 06:07:00,
2013-05-12 02:13:00,62.1,59.5,29.64,WNW,296,1.1,1.1,91,0.00,,,0.00,WUHU21623XXSP,2013-05-12 06:13:00,
2013-05-12 02:20:00,62.1,59.5,29.64,West,273,0.9,2.0,91,0.00,,,0.00,WUHU21623XXSP,2013-05-12 06:20:00,
2013-05-12 02:26:00,61.9,59.3,29.63,NW,318,2.5,2.5,91,0.00,,,0.00,WUHU21623XXSP,2013-05-12 06:26:00,
2013-05-12 02:33:00,61.9,59.0,29.62,NW,318,0.0,2.5,90,0.00,,,0.00,WUHU21623XXSP,2013-05-12 06:33:00,
2013-05-12 02:39:00,61.9,59.0,29.62,WNW,296,0.0,1.1,90,0.00,,,0.00,WUHU21623XXSP,2013-05-12 06:39:00,
2013-05-12 02:45:00,61.9,59.0,29.63,WSW,251,0.0,0.0,90,0.00,,,0.00,WUHU21623XXSP,2013-05-12 06:45:00,
2013-05-12 02:52:00,61.9,59.0,29.63,WSW,251,0.0,0.7,90,0.00,,,0.00,WUHU21623XXSP,2013-05-12 06:52:00,
2013-05-12 02:58:00,61.7,58.8,29.63,WSW,251,0.0,0.0,90,0.00,,,0.00,WUHU21623XXSP,2013-05-12 06:58:00,
2013-05-12 03:05:00,61.7,58.8,29.64,SW,228,0.0,1.3,90,0.00,,,0.00,WUHU21623XXSP,2013-05-12 07:05:00,
2013-05-12 03:11:00,61.7,58.8,29.65,WSW,251,0.0,0.0,90,0.00,,,0.00,WUHU21623XXSP,2013-05-12 07:11:00,
2013-05-12 03:18:00,61.7,58.8,29.66,SW,228,0.9,1.3,90,0.00,,,0.00,WUHU21623XXSP,2013-05-12 07:18:00,
2013-05-12 03:24:00,61.7,58.8,29.65,West,273,0.7,1.3,90,0.00,,,0.00,WUHU21623XXSP,2013-05-12 07:24:00,
2013-05-12 03:31:00,61.7,58.8,29.65,WSW,251,0.0,0.9,90,0.00,,,0.00,WUHU21623XXSP,2013-05-12 07:31:00,
2013-05-12 03:37:00,61.5,58.6,29.66,WSW,251,0.0,0.0,90,0.00,,,0.00,WUHU21623XXSP,2013-05-12 07:37:00,
2013-05-12 03:43:00,61.5,58.6,29.65,WSW,251,0.0,0.7,90,0.00,,,0.00,WUHU21623XXSP,2013-05-12 07:43:00,
2013-05-12 03:50:00,61.5,58.3,29.66,SW,228,0.0,0.7,89,0.00,,,0.00,WUHU21623XXSP,2013-05-12 07:50:00,
2013-05-12 03:56:00,61.5,58.3,29.65,WSW,251,0.0,0.7,89,0.00,,,0.00,WUHU21623XXSP,2013-05-12 07:56:00,
2013-05-12 04:03:00,61.5,58.3,29.65,WSW,251,0.7,0.7,89,0.00,,,0.00,WUHU21623XXSP,2013-05-12 08:03:00,
2013-05-12 04:10:00,61.3,58.1,29.66,WSW,251,1.1,1.1,89,0.00,,,0.00,WUHU21623XXSP,2013-05-12 08:10:00,
2013-05-12 04:16:00,61.3,58.1,29.65,WSW,251,0.0,1.1,89,0.00,,,0.00,WUHU21623XXSP,2013-05-12 08:16:00,
2013-05-12 04:22:00,61.3,58.1,29.65,WSW,251,0.0,0.0,89,0.00,,,0.00,WUHU21623XXSP,2013-05-12 08:22:00,
2013-05-12 04:29:00,61.3,58.1,29.65,SW,228,0.0,0.0,89,0.00,,,0.00,WUHU21623XXSP,2013-05-12 08:29:00,
2013-05-12 04:35:00,61.3,58.1,29.66,SW,228,1.8,1.8,89,0.00,,,0.00,WUHU21623XXSP,2013-05-12 08:35:00,
2013-05-12 04:41:00,61.3,58.1,29.67,SW,228,1.8,1.8,89,0.00,,,0.00,WUHU21623XXSP,2013-05-12 08:41:00,
2013-05-12 04:48:00,61.3,58.1,29.66,WSW,251,0.0,1.8,89,0.00,,,0.00,WUHU21623XXSP,2013-05-12 08:48:00,
2013-05-12 04:54:00,61.2,57.9,29.66,West,273,1.1,1.1,89,0.00,,,0.00,WUHU21623XXSP,2013-05-12 08:54:00,
2013-05-12 05:01:00,61.2,57.9,29.65,SW,228,0.0,1.1,89,0.00,,,0.00,WUHU21623XXSP,2013-05-12 09:01:00,
2013-05-12 05:07:00,61.2,57.9,29.64,SW,228,0.0,0.0,89,0.00,,,0.00,WUHU21623XXSP,2013-05-12 09:07:00,
2013-05-12 05:14:00,61.2,57.9,29.64,WSW,251,0.0,0.7,89,0.00,,,0.00,WUHU21623XXSP,2013-05-12 09:14:00,
2013-05-12 05:20:00,61.2,57.9,29.65,WSW,251,0.7,0.7,89,0.00,,,0.00,WUHU21623XXSP,2013-05-12 09:20:00,
2013-05-12 05:27:00,61.2,57.9,29.66,West,273,0.9,0.9,89,0.00,,,0.00,WUHU21623XXSP,2013-05-12 09:27:00,
2013-05-12 05:33:00,61.0,57.8,29.66,NW,318,2.9,2.9,89,0.00,,,0.00,WUHU21623XXSP,2013-05-12 09:33:00,
2013-05-12 05:40:00,60.6,57.4,29.66,West,273,2.0,2.9,89,0.00,,,0.00,WUHU21623XXSP,2013-05-12 09:40:00,
2013-05-12 05:46:00,60.4,57.2,29.66,West,273,1.3,2.0,89,0.00,,,0.00,WUHU21623XXSP,2013-05-12 09:46:00,
2013-05-12 05:52:00,60.4,57.2,29.67,WSW,251,0.7,1.3,89,0.00,,,0.00,WUHU21623XXSP,2013-05-12 09:52:00,
2013-05-12 05:59:00,60.4,56.9,29.67,WSW,251,0.7,1.3,88,0.00,,,0.00,WUHU21623XXSP,2013-05-12 09:59:00,
2013-05-12 06:05:00,60.4,56.9,29.67,West,273,0.0,1.6,88,0.00,,,0.00,WUHU21623XXSP,2013-05-12 10:05:00,
2013-05-12 06:12:00,60.1,56.6,29.67,NW,318,0.0,1.6,88,0.00,,,0.00,WUHU21623XXSP,2013-05-12 10:12:00,
2013-05-12 06:18:00,60.1,56.6,29.67,WNW,296,1.1,1.1,88,0.00,,,0.00,WUHU21623XXSP,2013-05-12 10:18:00,
2013-05-12 06:25:00,59.9,56.4,29.67,West,273,0.0,1.1,88,0.00,,,0.00,WUHU21623XXSP,2013-05-12 10:25:00,
2013-05-12 06:31:00,59.9,56.4,29.68,West,273,0.7,2.2,88,0.00,,,0.00,WUHU21623XXSP,2013-05-12 10:31:00,
2013-05-12 06:38:00,59.9,56.4,29.68,WNW,296,1.3,2.2,88,0.00,,,0.00,WUHU21623XXSP,2013-05-12 10:38:00,
2013-05-12 06:44:00,59.7,56.2,29.67,NW,318,2.5,2.5,88,0.00,,,0.00,WUHU21623XXSP,2013-05-12 10:44:00,
2013-05-12 06:51:00,59.5,56.0,29.67,NW,318,1.6,2.5,88,0.00,,,0.00,WUHU21623XXSP,2013-05-12 10:51:00,
2013-05-12 06:57:00,59.4,55.8,29.67,West,273,1.1,1.8,88,0.00,,,0.00,WUHU21623XXSP,2013-05-12 10:57:00,
2013-05-12 07:03:00,59.4,55.8,29.67,WNW,296,0.0,1.1,88,0.00,,,0.00,WUHU21623XXSP,2013-05-12 11:03:00,
2013-05-12 07:10:00,59.4,56.0,29.68,WSW,251,1.3,1.3,88,0.00,,,0.00,WUHU21623XXSP,2013-05-12 11:10:00,
2013-05-12 07:16:00,59.5,56.0,29.68,WNW,296,1.3,1.3,88,0.00,,,0.00,WUHU21623XXSP,2013-05-12 11:16:00,
2013-05-12 07:23:00,59.4,55.8,29.68,WSW,251,0.7,1.3,88,0.00,,,0.00,WUHU21623XXSP,2013-05-12 11:23:00,
2013-05-12 07:29:00,59.4,55.8,29.68,WSW,251,1.6,1.6,88,0.00,,,0.00,WUHU21623XXSP,2013-05-12 11:29:00,
2013-05-12 07:36:00,59.4,55.8,29.68,SW,228,1.3,1.6,88,0.00,,,0.00,WUHU21623XXSP,2013-05-12 11:36:00,
2013-05-12 07:42:00,59.2,55.7,29.68,WSW,251,0.7,1.3,88,0.00,,,0.00,WUHU21623XXSP,2013-05-12 11:42:00,
2013-05-12 07:49:00,59.2,55.5,29.67,WSW,251,0.0,0.7,88,0.00,,,0.00,WUHU21623XXSP,2013-05-12 11:49:00,
2013-05-12 07:55:00,58.8,55.3,29.68,WSW,251,1.6,3.1,88,0.00,,,0.00,WUHU21623XXSP,2013-05-12 11:55:00,
2013-05-12 08:01:00,58.8,55.3,29.68,WSW,251,1.3,3.1,88,0.00,,,0.00,WUHU21623XXSP,2013-05-12 12:01:00,
2013-05-12 08:08:00,58.8,55.3,29.67,West,273,2.0,2.0,88,0.00,,,0.00,WUHU21623XXSP,2013-05-12 12:08:00,
2013-05-12 08:14:00,58.8,55.3,29.66,NW,318,1.3,2.0,88,0.00,,,0.00,WUHU21623XXSP,2013-05-12 12:14:00,
2013-05-12 08:21:00,58.8,55.0,29.66,West,273,2.9,2.9,87,0.00,,,0.00,WUHU21623XXSP,2013-05-12 12:21:00,
2013-05-12 08:27:00,58.8,55.0,29.66,NW,318,1.6,2.9,87,0.00,,,0.00,WUHU21623XXSP,2013-05-12 12:27:00,
2013-05-12 08:34:00,58.8,55.0,29.66,West,273,7.2,7.2,87,0.00,,,0.00,WUHU21623XXSP,2013-05-12 12:34:00,
2013-05-12 08:40:00,58.3,54.1,29.66,West,273,5.6,7.2,86,0.00,,,0.00,WUHU21623XXSP,2013-05-12 12:40:00,
2013-05-12 08:47:00,58.3,53.8,29.66,West,273,3.4,5.6,85,0.00,,,0.00,WUHU21623XXSP,2013-05-12 12:47:00,
2013-05-12 08:53:00,58.1,53.3,29.68,WNW,296,3.1,3.4,84,0.00,,,0.00,WUHU21623XXSP,2013-05-12 12:53:00,
2013-05-12 08:59:00,57.9,52.8,29.67,WNW,296,5.1,5.1,83,0.00,,,0.00,WUHU21623XXSP,2013-05-12 12:59:00,
2013-05-12 09:06:00,57.9,52.8,29.67,West,273,5.1,5.1,83,0.00,,,0.00,WUHU21623XXSP,2013-05-12 13:06:00,
2013-05-12 09:12:00,57.7,52.3,29.68,NW,318,1.3,5.1,82,0.00,,,0.00,WUHU21623XXSP,2013-05-12 13:12:00,
2013-05-12 09:19:00,57.7,52.3,29.68,WNW,296,4.7,4.7,82,0.00,,,0.00,WUHU21623XXSP,2013-05-12 13:19:00,
2013-05-12 09:25:00,57.7,52.1,29.67,NW,318,4.5,4.7,81,0.00,,,0.00,WUHU21623XXSP,2013-05-12 13:25:00,
2013-05-12 09:31:00,57.9,52.1,29.66,NNW,341,4.0,4.5,81,0.00,,,0.00,WUHU21623XXSP,2013-05-12 13:31:00,
2013-05-12 09:38:00,58.1,52.3,29.66,WNW,296,2.9,5.1,81,0.00,,,0.00,WUHU21623XXSP,2013-05-12 13:38:00,
2013-05-12 09:44:00,58.3,52.5,29.67,NW,318,3.6,4.3,81,0.00,,,0.00,WUHU21623XXSP,2013-05-12 13:44:00,
2013-05-12 09:51:00,58.6,52.5,29.66,WNW,296,8.3,8.3,80,0.00,,,0.00,WUHU21623XXSP,2013-05-12 13:51:00,
2013-05-12 09:57:00,58.8,52.7,29.66,WNW,296,4.9,8.3,80,0.00,,,0.00,WUHU21623XXSP,2013-05-12 13:57:00,
2013-05-12 10:04:00,58.8,52.7,29.66,WNW,296,3.8,5.6,80,0.00,,,0.00,WUHU21623XXSP,2013-05-12 14:04:00,
2013-05-12 10:10:00,59.4,52.9,29.66,WSW,251,2.2,5.8,79,0.00,,,0.00,WUHU21623XXSP,2013-05-12 14:10:00,
2013-05-12 10:17:00,59.7,52.9,29.66,North,3,3.1,5.8,78,0.00,,,0.00,WUHU21623XXSP,2013-05-12 14:17:00,
2013-05-12 10:23:00,60.4,53.2,29.66,WSW,251,3.6,3.6,77,0.00,,,0.00,WUHU21623XXSP,2013-05-12 14:23:00,
2013-05-12 10:29:00,61.0,53.4,29.66,NNW,341,1.3,4.3,76,0.00,,,0.00,WUHU21623XXSP,2013-05-12 14:29:00,
2013-05-12 10:36:00,61.9,54.6,29.66,NNW,341,4.7,4.7,77,0.00,,,0.00,WUHU21623XXSP,2013-05-12 14:36:00,
2013-05-12 10:42:00,62.8,54.7,29.66,West,273,6.0,6.0,75,0.00,,,0.00,WUHU21623XXSP,2013-05-12 14:42:00,
2013-05-12 10:49:00,63.7,55.2,29.66,West,273,3.8,6.0,74,0.00,,,0.00,WUHU21623XXSP,2013-05-12 14:49:00,
2013-05-12 10:55:00,64.2,55.0,29.66,West,261,2.9,4.0,72,0.00,,,0.00,WUHU21623XXSP,2013-05-12 14:55:00,
2013-05-12 11:02:00,65.5,55.5,29.66,WNW,296,3.1,3.1,70,0.00,,,0.00,WUHU21623XXSP,2013-05-12 15:02:00,
2013-05-12 11:08:00,66.0,54.7,29.66,WSW,251,5.4,5.4,67,0.00,,,0.00,WUHU21623XXSP,2013-05-12 15:08:00,
2013-05-12 11:14:00,66.4,54.2,29.66,WSW,251,4.5,8.7,65,0.00,,,0.00,WUHU21623XXSP,2013-05-12 15:14:00,
2013-05-12 11:21:00,67.3,54.6,29.66,SSW,206,10.7,10.7,64,0.00,,,0.00,WUHU21623XXSP,2013-05-12 15:21:00,
2013-05-12 11:27:00,68.2,55.1,29.65,West,273,5.8,10.7,63,0.00,,,0.00,WUHU21623XXSP,2013-05-12 15:27:00,
2013-05-12 11:34:00,68.7,56.0,29.66,WSW,251,3.4,5.8,64,0.00,,,0.00,WUHU21623XXSP,2013-05-12 15:34:00,
2013-05-12 11:40:00,69.1,55.1,29.66,West,273,1.8,6.5,61,0.00,,,0.00,WUHU21623XXSP,2013-05-12 15:40:00,
2013-05-12 11:46:00,69.4,55.9,29.66,NNW,341,3.1,6.5,62,0.00,,,0.00,WUHU21623XXSP,2013-05-12 15:46:00,
2013-05-12 11:53:00,69.4,55.9,29.65,West,273,4.5,4.5,62,0.00,,,0.00,WUHU21623XXSP,2013-05-12 15:53:00,
2013-05-12 12:00:00,70.0,55.1,29.65,SSW,206,8.1,8.1,59,0.00,,,0.00,WUHU21623XXSP,2013-05-12 16:00:00,
2013-05-12 12:06:00,70.0,54.6,29.66,West,273,8.1,8.1,58,0.00,,,0.00,WUHU21623XXSP,2013-05-12 16:06:00,
2013-05-12 12:12:00,70.2,54.2,29.65,South,183,13.0,13.0,57,0.00,,,0.00,WUHU21623XXSP,2013-05-12 16:12:00,
2013-05-12 12:19:00,70.3,53.7,29.66,WSW,251,4.0,13.0,56,0.00,,,0.00,WUHU21623XXSP,2013-05-12 16:19:00,
2013-05-12 12:25:00,70.5,54.5,29.65,WSW,251,6.5,10.3,57,0.00,,,0.00,WUHU21623XXSP,2013-05-12 16:25:00,
2013-05-12 12:32:00,70.7,53.9,29.65,WSW,251,3.8,9.6,55,0.00,,,0.00,WUHU21623XXSP,2013-05-12 16:32:00,
2013-05-12 12:38:00,70.7,53.7,29.65,West,273,4.3,9.6,55,0.00,,,0.00,WUHU21623XXSP,2013-05-12 16:38:00,
2013-05-12 12:45:00,70.9,53.9,29.65,WNW,296,2.5,6.0,55,0.00,,,0.00,WUHU21623XXSP,2013-05-12 16:45:00,
2013-05-12 12:51:00,70.9,53.9,29.65,West,273,9.8,9.8,55,0.00,,,0.00,WUHU21623XXSP,2013-05-12 16:51:00,
2013-05-12 12:58:00,71.4,53.3,29.66,SW,228,6.0,9.8,53,0.00,,,0.00,WUHU21623XXSP,2013-05-12 16:58:00,
2013-05-12 13:04:00,71.8,53.2,29.66,West,273,6.0,10.5,52,0.00,,,0.00,WUHU21623XXSP,2013-05-12 17:04:00,
2013-05-12 13:10:00,72.0,52.8,29.66,WSW,251,21.0,21.0,51,0.00,,,0.00,WUHU21623XXSP,2013-05-12 17:10:00,
2013-05-12 13:17:00,72.3,52.6,29.66,SW,228,12.3,21.0,50,0.00,,,0.00,WUHU21623XXSP,2013-05-12 17:17:00,
2013-05-12 13:23:00,72.3,52.6,29.66,SW,228,13.6,19.7,50,0.00,,,0.00,WUHU21623XXSP,2013-05-12 17:23:00,
2013-05-12 13:30:00,71.4,52.3,29.65,WSW,251,4.5,13.6,51,0.00,,,0.00,WUHU21623XXSP,2013-05-12 17:30:00,
2013-05-12 13:36:00,71.1,51.5,29.65,West,273,12.8,12.8,50,0.00,,,0.00,WUHU21623XXSP,2013-05-12 17:36:00,
2013-05-12 13:42:00,70.5,51.5,29.66,WNW,303,6.5,12.8,51,0.00,,,0.00,WUHU21623XXSP,2013-05-12 17:42:00,
2013-05-12 13:49:00,70.5,51.5,29.65,SW,228,7.6,8.7,51,0.00,,,0.00,WUHU21623XXSP,2013-05-12 17:49:00,
2013-05-12 13:55:00,70.5,50.4,29.65,SW,228,14.1,14.1,50,0.00,,,0.00,WUHU21623XXSP,2013-05-12 17:55:00,
2013-05-12 14:02:00,70.5,50.4,29.66,WSW,251,4.5,14.1,49,0.00,,,0.00,WUHU21623XXSP,2013-05-12 18:02:00,
2013-05-12 14:08:00,70.3,50.3,29.66,WSW,251,9.4,15.0,49,0.00,,,0.00,WUHU21623XXSP,2013-05-12 18:08:00,
2013-05-12 14:15:00,69.8,49.8,29.66,WSW,251,9.4,15.0,49,0.00,,,0.00,WUHU21623XXSP,2013-05-12 18:15:00,
2013-05-12 14:21:00,69.4,48.3,29.66,South,183,4.9,14.3,47,0.00,,,0.00,WUHU21623XXSP,2013-05-12 18:21:00,
2013-05-12 14:28:00,69.1,47.9,29.65,SSW,206,11.0,11.9,47,0.00,,,0.00,WUHU21623XXSP,2013-05-12 18:28:00,
2013-05-12 14:34:00,68.7,47.6,29.65,SW,228,6.9,11.0,47,0.00,,,0.00,WUHU21623XXSP,2013-05-12 18:34:00,
2013-05-12 14:40:00,68.4,48.6,29.65,WSW,251,4.5,10.1,49,0.00,,,0.00,WUHU21623XXSP,2013-05-12 18:40:00,
2013-05-12 14:47:00,68.2,47.1,29.65,WSW,244,10.8,14.8,47,0.00,,,0.00,WUHU21623XXSP,2013-05-12 18:47:00,
2013-05-12 14:53:00,67.8,47.4,29.65,West,273,4.0,14.8,48,0.00,,,0.00,WUHU21623XXSP,2013-05-12 18:53:00,
2013-05-12 15:00:00,67.6,47.8,29.65,WSW,251,8.3,8.7,49,0.00,,,0.00,WUHU21623XXSP,2013-05-12 19:00:00,
2013-05-12 15:06:00,67.6,47.2,29.65,WSW,251,6.9,9.2,48,0.00,,,0.00,WUHU21623XXSP,2013-05-12 19:06:00,
2013-05-12 15:13:00,67.6,47.2,29.65,West,273,7.4,9.2,48,0.00,,,0.00,WUHU21623XXSP,2013-05-12 19:13:00,
2013-05-12 15:19:00,67.6,47.2,29.66,West,273,11.0,11.0,48,0.00,,,0.00,WUHU21623XXSP,2013-05-12 19:19:00,
2013-05-12 15:26:00,67.3,46.3,29.66,NW,318,3.6,11.0,47,0.00,,,0.00,WUHU21623XXSP,2013-05-12 19:26:00,
2013-05-12 15:32:00,67.1,46.1,29.66,WNW,296,9.2,9.2,47,0.00,,,0.00,WUHU21623XXSP,2013-05-12 19:32:00,
2013-05-12 15:38:00,67.1,45.6,29.66,NNW,341,5.1,11.0,45,0.00,,,0.00,WUHU21623XXSP,2013-05-12 19:38:00,
2013-05-12 15:45:00,67.1,44.4,29.66,West,273,10.3,10.3,44,0.00,,,0.00,WUHU21623XXSP,2013-05-12 19:45:00,
2013-05-12 15:51:00,66.9,44.2,29.66,SSW,206,6.3,10.3,44,0.00,,,0.00,WUHU21623XXSP,2013-05-12 19:51:00,
2013-05-12 15:58:00,66.9,44.2,29.66,SSW,206,11.2,11.2,44,0.00,,,0.00,WUHU21623XXSP,2013-05-12 19:58:00,
2013-05-12 16:04:00,66.7,42.9,29.66,SW,228,6.4,11.2,42,0.00,,,0.00,WUHU21623XXSP,2013-05-12 20:04:00,
2013-05-12 16:11:00,66.4,41.3,29.66,WNW,296,8.9,10.5,40,0.00,,,0.00,WUHU21623XXSP,2013-05-12 20:11:00,
2013-05-12 16:17:00,66.0,40.3,29.66,West,273,5.8,10.5,39,0.00,,,0.00,WUHU21623XXSP,2013-05-12 20:17:00,
2013-05-12 16:23:00,66.0,41.6,29.66,West,273,3.1,8.1,41,0.00,,,0.00,WUHU21623XXSP,2013-05-12 20:23:00,
2013-05-12 16:30:00,66.0,41.6,29.66,WNW,296,8.9,8.9,41,0.00,,,0.00,WUHU21623XXSP,2013-05-12 20:30:00,
2013-05-12 16:36:00,66.0,41.6,29.67,SW,228,9.6,9.6,41,0.00,,,0.00,WUHU21623XXSP,2013-05-12 20:36:00,
2013-05-12 16:43:00,65.8,41.4,29.67,SW,228,15.4,15.4,41,0.00,,,0.00,WUHU21623XXSP,2013-05-12 20:43:00,
2013-05-12 16:49:00,65.7,41.3,29.67,SW,228,10.3,15.4,41,0.00,,,0.00,WUHU21623XXSP,2013-05-12 20:49:00,
2013-05-12 16:56:00,65.7,41.9,29.67,WSW,251,2.9,10.3,42,0.00,,,0.00,WUHU21623XXSP,2013-05-12 20:56:00,
2013-05-12 17:02:00,65.7,41.3,29.67,WNW,296,12.1,12.1,41,0.00,,,0.00,WUHU21623XXSP,2013-05-12 21:02:00,
2013-05-12 17:09:00,65.5,41.1,29.68,SSW,206,6.7,12.1,41,0.00,,,0.00,WUHU21623XXSP,2013-05-12 21:09:00,
2013-05-12 17:15:00,65.3,40.9,29.68,WSW,251,5.8,6.7,41,0.00,,,0.00,WUHU21623XXSP,2013-05-12 21:15:00,
2013-05-12 17:21:00,65.1,40.8,29.68,SW,228,7.4,17.9,41,0.00,,,0.00,WUHU21623XXSP,2013-05-12 21:21:00,
2013-05-12 17:28:00,64.9,40.0,29.69,West,273,5.6,17.9,40,0.00,,,0.00,WUHU21623XXSP,2013-05-12 21:28:00,
2013-05-12 17:34:00,64.8,39.9,29.70,West,273,8.1,9.6,40,0.00,,,0.00,WUHU21623XXSP,2013-05-12 21:34:00,
2013-05-12 17:41:00,64.2,39.0,29.70,WSW,251,5.6,8.5,39,0.00,,,0.00,WUHU21623XXSP,2013-05-12 21:41:00,
2013-05-12 17:47:00,64.2,40.0,29.70,NNW,341,6.0,6.5,41,0.00,,,0.00,WUHU21623XXSP,2013-05-12 21:47:00,
2013-05-12 17:54:00,64.0,39.2,29.71,West,273,10.7,10.7,40,0.00,,,0.00,WUHU21623XXSP,2013-05-12 21:54:00,
2013-05-12 18:00:00,63.7,38.9,29.71,West,273,7.4,15.7,40,0.00,,,0.00,WUHU21623XXSP,2013-05-12 22:00:00,
2013-05-12 18:06:00,63.7,39.5,29.72,WSW,251,7.4,15.7,41,0.00,,,0.00,WUHU21623XXSP,2013-05-12 22:06:00,
2013-05-12 18:13:00,63.5,39.3,29.72,West,273,5.8,7.4,41,0.00,,,0.00,WUHU21623XXSP,2013-05-12 22:13:00,
2013-05-12 18:20:00,63.3,39.2,29.72,WSW,251,13.2,13.2,41,0.00,,,0.00,WUHU21623XXSP,2013-05-12 22:20:00,
2013-05-12 18:26:00,63.1,39.0,29.72,SW,228,4.7,13.2,41,0.00,,,0.00,WUHU21623XXSP,2013-05-12 22:26:00,
2013-05-12 18:32:00,63.0,38.8,29.72,WNW,296,3.6,8.7,41,0.00,,,0.00,WUHU21623XXSP,2013-05-12 22:32:00,
2013-05-12 18:39:00,62.8,38.7,29.73,WSW,251,5.8,8.7,41,0.00,,,0.00,WUHU21623XXSP,2013-05-12 22:39:00,
2013-05-12 18:45:00,62.4,38.4,29.73,SW,228,7.8,7.8,41,0.00,,,0.00,WUHU21623XXSP,2013-05-12 22:45:00,
2013-05-12 18:52:00,62.2,38.2,29.75,WSW,251,9.4,9.4,41,0.00,,,0.00,WUHU21623XXSP,2013-05-12 22:52:00,
2013-05-12 18:58:00,62.1,38.0,29.73,NW,318,4.5,9.4,41,0.00,,,0.00,WUHU21623XXSP,2013-05-12 22:58:00,
2013-05-12 19:05:00,61.7,38.3,29.74,SSW,206,4.7,5.8,42,0.00,,,0.00,WUHU21623XXSP,2013-05-12 23:05:00,
2013-05-12 19:11:00,61.5,38.1,29.74,West,273,4.3,6.5,42,0.00,,,0.00,WUHU21623XXSP,2013-05-12 23:11:00,
2013-05-12 19:17:00,61.3,38.0,29.75,West,273,3.6,6.5,42,0.00,,,0.00,WUHU21623XXSP,2013-05-12 23:17:00,
2013-05-12 19:24:00,61.0,37.6,29.75,West,273,2.7,3.6,42,0.00,,,0.00,WUHU21623XXSP,2013-05-12 23:24:00,
2013-05-12 19:30:00,60.6,36.7,29.76,West,273,2.2,6.3,41,0.00,,,0.00,WUHU21623XXSP,2013-05-12 23:30:00,
2013-05-12 19:37:00,60.4,36.6,29.76,West,273,8.3,8.7,41,0.00,,,0.00,WUHU21623XXSP,2013-05-12 23:37:00,
2013-05-12 19:43:00,60.1,36.2,29.77,NW,318,3.1,8.3,41,0.00,,,0.00,WUHU21623XXSP,2013-05-12 23:43:00,
2013-05-12 19:50:00,59.9,36.1,29.77,West,261,6.8,7.4,41,0.00,,,0.00,WUHU21623XXSP,2013-05-12 23:50:00,
2013-05-12 19:56:00,59.7,35.9,29.77,WNW,296,6.0,7.2,41,0.00,,,0.00,WUHU21623XXSP,2013-05-12 23:56:00,
2013-05-12 20:03:00,59.5,35.8,29.78,SW,228,9.4,9.4,41,0.00,,,0.00,WUHU21623XXSP,2013-05-13 00:03:00,
2013-05-12 20:09:00,59.4,35.4,29.78,WNW,296,3.8,9.4,41,0.00,,,0.00,WUHU21623XXSP,2013-05-13 00:09:00,
2013-05-12 20:15:00,58.8,35.7,29.79,WNW,296,13.4,13.4,42,0.00,,,0.00,WUHU21623XXSP,2013-05-13 00:15:00,
2013-05-12 20:22:00,58.8,35.1,29.79,SW,228,2.9,13.4,41,0.00,,,0.00,WUHU21623XXSP,2013-05-13 00:22:00,
2013-05-12 20:28:00,58.8,35.1,29.79,West,273,4.3,8.3,41,0.00,,,0.00,WUHU21623XXSP,2013-05-13 00:28:00,
2013-05-12 20:35:00,58.8,35.7,29.79,NW,318,8.3,8.3,42,0.00,,,0.00,WUHU21623XXSP,2013-05-13 00:35:00,
2013-05-12 20:41:00,58.6,35.7,29.79,SW,228,4.0,10.7,42,0.00,,,0.00,WUHU21623XXSP,2013-05-13 00:41:00,
2013-05-12 20:48:00,58.5,35.4,29.80,WNW,296,7.8,7.8,42,0.00,,,0.00,WUHU21623XXSP,2013-05-13 00:48:00,
2013-05-12 20:54:00,58.3,35.8,29.81,WSW,251,4.3,7.8,43,0.00,,,0.00,WUHU21623XXSP,2013-05-13 00:54:00,
2013-05-12 21:00:00,58.1,35.6,29.80,West,273,7.4,7.4,43,0.00,,,0.00,WUHU21623XXSP,2013-05-13 01:00:00,
2013-05-12 21:07:00,57.9,35.5,29.81,NNW,341,3.1,7.4,43,0.00,,,0.00,WUHU21623XXSP,2013-05-13 01:07:00,
2013-05-12 21:13:00,57.9,35.5,29.82,NNW,341,4.7,6.0,43,0.00,,,0.00,WUHU21623XXSP,2013-05-13 01:13:00,
2013-05-12 21:20:00,57.9,35.5,29.82,West,273,3.8,6.0,43,0.00,,,0.00,WUHU21623XXSP,2013-05-13 01:20:00,
2013-05-12 21:26:00,57.9,36.0,29.83,NW,318,2.9,4.0,44,0.00,,,0.00,WUHU21623XXSP,2013-05-13 01:26:00,
2013-05-12 21:32:00,57.7,35.9,29.83,NW,318,4.0,4.0,44,0.00,,,0.00,WUHU21623XXSP,2013-05-13 01:32:00,
2013-05-12 21:39:00,57.7,35.9,29.84,WNW,296,4.7,7.2,44,0.00,,,0.00,WUHU21623XXSP,2013-05-13 01:39:00,
2013-05-12 21:45:00,57.6,36.3,29.84,NNW,341,2.2,7.8,45,0.00,,,0.00,WUHU21623XXSP,2013-05-13 01:45:00,
2013-05-12 21:52:00,57.6,36.3,29.85,NNW,341,9.4,9.4,45,0.00,,,0.00,WUHU21623XXSP,2013-05-13 01:52:00,
2013-05-12 21:58:00,57.4,36.1,29.85,NNW,341,5.6,9.4,45,0.00,,,0.00,WUHU21623XXSP,2013-05-13 01:58:00,
2013-05-12 22:05:00,57.0,35.8,29.86,NW,318,6.0,6.9,45,0.00,,,0.00,WUHU21623XXSP,2013-05-13 02:05:00,
2013-05-12 22:11:00,57.0,36.4,29.87,West,273,2.2,6.9,46,0.00,,,0.00,WUHU21623XXSP,2013-05-13 02:11:00,
2013-05-12 22:18:00,56.8,36.2,29.87,WNW,296,13.9,13.9,46,0.00,,,0.00,WUHU21623XXSP,2013-05-13 02:18:00,
2013-05-12 22:24:00,56.8,36.2,29.87,NNW,341,3.6,13.9,46,0.00,,,0.00,WUHU21623XXSP,2013-05-13 02:24:00,
2013-05-12 22:30:00,56.5,35.8,29.88,NW,318,6.0,6.0,46,0.00,,,0.00,WUHU21623XXSP,2013-05-13 02:30:00,
2013-05-12 22:37:00,56.5,35.8,29.88,WNW,296,10.7,10.7,46,0.00,,,0.00,WUHU21623XXSP,2013-05-13 02:37:00,
2013-05-12 22:43:00,56.1,35.5,29.88,West,273,6.5,10.7,46,0.00,,,0.00,WUHU21623XXSP,2013-05-13 02:43:00,
2013-05-12 22:50:00,56.1,36.0,29.88,West,273,8.9,8.9,47,0.00,,,0.00,WUHU21623XXSP,2013-05-13 02:50:00,
2013-05-12 22:56:00,55.9,35.9,29.89,NNE,26,2.5,8.9,47,0.00,,,0.00,WUHU21623XXSP,2013-05-13 02:56:00,
2013-05-12 23:02:00,55.8,35.3,29.88,WNW,296,5.1,10.5,46,0.00,,,0.00,WUHU21623XXSP,2013-05-13 03:02:00,
2013-05-12 23:09:00,55.6,35.0,29.89,NW,318,6.5,6.5,46,0.00,,,0.00,WUHU21623XXSP,2013-05-13 03:09:00,
2013-05-12 23:15:00,55.4,34.8,29.89,West,273,6.7,6.7,46,0.00,,,0.00,WUHU21623XXSP,2013-05-13 03:15:00,
2013-05-12 23:22:00,55.2,34.6,29.90,WNW,296,11.2,11.2,46,0.00,,,0.00,WUHU21623XXSP,2013-05-13 03:22:00,
2013-05-12 23:28:00,55.0,34.6,29.89,West,273,9.2,11.2,45,0.00,,,0.00,WUHU21623XXSP,2013-05-13 03:28:00,
2013-05-12 23:35:00,54.9,33.8,29.90,North,3,5.1,9.2,45,0.00,,,0.00,WUHU21623XXSP,2013-05-13 03:35:00,
2013-05-12 23:41:00,54.7,34.2,29.90,North,3,3.8,11.2,46,0.00,,,0.00,WUHU21623XXSP,2013-05-13 03:41:00,
2013-05-12 23:48:00,54.5,34.0,29.90,NW,318,10.7,11.2,46,0.00,,,0.00,WUHU21623XXSP,2013-05-13 03:48:00,
2013-05-12 23:54:00,54.3,33.8,29.90,NW,318,1.3,10.7,46,0.00,,,0.00,WUHU21623XXSP,2013-05-13 03:54:00,